Boa Vista Airport

BR-0124 · 米纳斯吉拉斯州, 巴西

使用的METAR站距离机场90 km。
罗盘
风向 的 风向 110°
风: 5 kt, 2 beaufort

添加一条跑道以查看侧风和逆风信息。

添置 跑道
0 ft 1.000 2.000 3.000 4.000 5.000
CAVOK
METAR SBAX 270000Z AUTO 11005KT CAVOK 23/19 Q1019

METAR Boa Vista Airport - BR-0124

Boa Vista Airport是,巴西中的小机场。 该机场位于纬度-18,75764和经度-46,97078。 这个机场没有ICAO代码,我们使用BR-0124作为参考。 机场在Brasilia FIR中。

该航空气象观测是针对Romeu Zema Airport在2024年2月26日 21:00, 当地时间进行的。

机场观察

风向为110°,速度为5 kt。

天气为CAVOK。这意味着在5.000 ft或MSA(最低安全高度)以下(以较高者为准)以下没有云。这也意味着没有观测到积雨云或高耸的积云,可见度为10 km 或者更多或更高。此外,不会有雾,降雨或其他重要天气。

温度和风寒是23 °C。 露点为19 °C,相对湿度为78%。 海平面上的气压为1019 hPa (QNH)。

白天

今天,太阳从06:05升起,在18:35降落。 这适用于Boa Vista Airport,世界夏令时可能有所不同。 当地时间与世界标准时间之间的时差为-3 小时。 当前,没有夏令时有效。

公司介绍

我们没有关于这个机场的公司信息。

体会

到Vliegles.nl去找飞行课程,跳伞和其他飞行体验。 浏览页面,了解Boa Vista Airport附近所有可用的活动。 你也可以使用搜索功能来寻找你所在地附近的特定飞行课程、跳伞或其他飞行体验。

温度 & 天气

温度 23 °C
露点 19 °C
相对湿度 78%
Kp-index 1 (0-9)

白天

日出
06:04 (8:45)
中午
12:20
日落
18:36

小工具

你想在你的网站上有一个关于Boa Vista Airport的当前航空天气(METAR)的小部件吗?

显示HTML代码
?>